Oceola, Ohio
Current Conditions -  °F | °C
As of 12:53 PM on Thursday 27 Nov 2014 (Local Time) from KMNN Reporting Station
Overcast Overcast  
Wind Chill: 24°   Ceiling: 3500
Heat Index: 32°   Visibility: 10mi
Dew Point: 20°   Wind: 10mph
Humidity: 61%   Direction: 310°NW
Pressure: 30.18"   Gusts: NA
Location:  40.84°N, 83.09°W
Report Text: KMNN 271753Z AUTO 31009KT 10SM FEW026 BKN035 OVC043 00/M07 A3018 RMK AO2 SLP232 60000 T00001067 10000 21022 50000 TSNO
Loading
Personal Weather Stations






























Interactive Weather Map New forecast layout! Learn more

10-Day Weather Forecast

Advertisements
Track Severe Weather on mobile